ADDS METAR Data INFO
IDs: Format: Raw Decoded Include TAF

Data at: 2206 UTC 24 Feb 2018

KLLJ 242155Z AUTO VRB03KT 10SM FEW046 BKN055 OVC070 01/M12 A2972 RMK AO2 SLP085 T00061117
KLLJ 242055Z AUTO 15009KT 10SM OVC055 00/M12 A2972 RMK AO2 SLP088 T00001122 56025
KLLJ 241955Z AUTO 16010KT 10SM OVC060 00/M14 A2974 RMK AO2 SLP095 T00001139
KLLJ 241855Z AUTO 19011KT 10SM OVC055 01/M13 A2977 RMK AO2 SLP105 T00061128
KLLJ 241755Z AUTO 17009KT 10SM FEW060 SCT120 M01/M13 A2980 RMK AO2 SLP121 T10111128 11011 21072 58024
KLLJ 241655Z AUTO 18008KT 10SM SCT070 BKN085 M02/M13 A2983 RMK AO2 SLP131 T10221128
KLLJ 241555Z AUTO 01003KT 10SM OVC075 M05/M13 A2987 RMK AO2 SLP147 T10501133
KLLJ 241455Z AUTO 00000KT 10SM BKN060 OVC075 M07/M14 A2989 RMK AO2 SLP160 T10721144 56013
KLLJ 241355Z AUTO 00000KT 10SM BKN075 OVC100 M07/M14 A2990 RMK AO2 SLP165 T10671144
KLLJ 241255Z AUTO 17009KT 10SM FEW055 OVC075 M06/M14 A2991 RMK AO2 SLP164 T10561144
KLLJ 241155Z AUTO 20008KT 10SM BKN055 OVC075 M05/M16 A2993 RMK AO2 SLP166 T10501156 11050 21061 58014
KLLJ 241055Z AUTO 17007KT 10SM BKN055 BKN085 M06/M16 A2994 RMK AO2 SLP170 T10611156
KLLJ 240955Z AUTO 18008KT 10SM FEW050 SCT065 OVC085 M06/M16 A2997 RMK AO2 SLP182 T10561156
KLLJ 240855Z AUTO 18010KT 10SM OVC050 M06/M16 A2998 RMK AO2 SLP187 T10561161 57006
KLLJ 240755Z AUTO 16005KT 10SM OVC055 M06/M16 A2999 RMK AO2 SLP193 T10561161
KLLJ 240655Z AUTO 22007KT 10SM BKN060 OVC075 M06/M16 A2999 RMK AO2 SLP197 T10561161 410111139
KLLJ 240555Z AUTO 22005KT 10SM FEW050 OVC070 M06/M16 A3000 RMK AO2 SLP202 T10561161 11017 21061 58002
KLLJ 240455Z AUTO 23007KT 10SM BKN070 OVC085 M04/M17 A3001 RMK AO2 PK WND 27032/0415 SLP208 T10441167
KLLJ 240355Z AUTO 10SM BKN110 M04/M18 A3002 RMK AO2 SLP214 T10391183
KLLJ 240255Z AUTO 26007KT 10SM CLR M04/M18 A3001 RMK AO2 SLP215 T10441178 50005
KLLJ 240155Z AUTO 23005KT 10SM CLR M05/M16 A3001 RMK AO2 SLP215 T10501156
KLLJ 240055Z AUTO 23004KT 10SM CLR M04/M15 A3000 RMK AO2 SLP209 T10391150
KLLJ 232355Z AUTO 00000KT 10SM CLR M02/M16 A2999 RMK AO2 SLP201 T10171161 11011 21072 56014
KLLJ 232255Z AUTO VRB03KT 10SM CLR M01/M16 A2999 RMK AO2 SLP198 T10111161
KLLJ 232155Z AUTO 16004KT 10SM CLR M02/M16 A3001 RMK AO2 SLP209 T10221156
KLLJ 232055Z AUTO 20004KT 10SM CLR M04/M16 A3004 RMK AO2 SLP220 T10391156 58020
KLLJ 231955Z AUTO 00000KT 10SM CLR M05/M17 A3006 RMK AO2 SLP230 T10501172
KLLJ 231855Z AUTO 13005KT 10SM CLR M06/M16 A3009 RMK AO2 SLP242 T10561156
KLLJ 231755Z AUTO 15006KT 10SM CLR M07/M15 A3010 RMK AO2 SLP244 T10721150 11072 21139 50004
KLLJ 231655Z AUTO VRB03KT 10SM FEW050 M09/M16 A3010 RMK AO2 SLP247 T10891156
KLLJ 231555Z AUTO 00000KT 10SM CLR M11/M17 A3010 RMK AO2 SLP249 T11111167
KLLJ 231455Z AUTO 00000KT 10SM CLR M12/M17 A3009 RMK AO2 SLP244 T11221172 53019
KLLJ 231355Z AUTO 00000KT 10SM OVC050 M12/M17 A3006 RMK AO2 SLP233 T11221172
KLLJ 231255Z AUTO 14005KT 10SM FEW050 M12/M17 A3004 RMK AO2 SLP223 T11221172
KLLJ 231155Z AUTO 00000KT 10SM BKN042 M12/M17 A3002 RMK AO2 SLP215 T11221167 11072 21122 53013
KLLJ 231055Z AUTO 13005KT 10SM OVC050 M10/M16 A3000 RMK AO2 SLP202 T11001161